sensor_id;sensor_type;location;lat;lon;timestamp;pressure;altitude;pressure_sealevel;temperature;humidity
46642;BME280;32370;41.864;-88.124;2023-03-23T00:02:23;98534.42;;;8.05;100.00
46642;BME280;32370;41.864;-88.124;2023-03-23T00:04:54;98535.29;;;7.99;100.00
46642;BME280;32370;41.864;-88.124;2023-03-23T00:07:23;98532.55;;;8.09;100.00
46642;BME280;32370;41.864;-88.124;2023-03-23T00:09:51;98533.09;;;8.02;100.00
46642;BME280;32370;41.864;-88.124;2023-03-23T00:12:20;98532.88;;;8.03;100.00
46642;BME280;32370;41.864;-88.124;2023-03-23T00:14:48;98526.87;;;8.19;100.00
46642;BME280;32370;41.864;-88.124;2023-03-23T00:17:15;98526.74;;;7.83;100.00
46642;BME280;32370;41.864;-88.124;2023-03-23T00:19:43;98534.76;;;8.50;100.00
46642;BME280;32370;41.864;-88.124;2023-03-23T00:22:12;98533.12;;;7.93;100.00
46642;BME280;32370;41.864;-88.124;2023-03-23T00:24:40;98534.46;;;7.86;100.00
46642;BME280;32370;41.864;-88.124;2023-03-23T00:27:08;98533.37;;;7.75;100.00
46642;BME280;32370;41.864;-88.124;2023-03-23T00:29:36;98532.15;;;7.82;100.00
46642;BME280;32370;41.864;-88.124;2023-03-23T00:32:04;98534.76;;;7.51;100.00
46642;BME280;32370;41.864;-88.124;2023-03-23T00:34:32;98540.65;;;7.03;100.00
46642;BME280;32370;41.864;-88.124;2023-03-23T00:37:00;98546.24;;;6.96;100.00
46642;BME280;32370;41.864;-88.124;2023-03-23T00:39:29;98548.15;;;6.76;100.00
46642;BME280;32370;41.864;-88.124;2023-03-23T00:41:57;98532.41;;;6.85;100.00
46642;BME280;32370;41.864;-88.124;2023-03-23T00:44:25;98531.94;;;7.34;100.00
46642;BME280;32370;41.864;-88.124;2023-03-23T00:46:53;98531.38;;;7.62;100.00
46642;BME280;32370;41.864;-88.124;2023-03-23T00:49:23;98538.72;;;7.59;100.00
46642;BME280;32370;41.864;-88.124;2023-03-23T00:51:52;98538.18;;;7.34;100.00
46642;BME280;32370;41.864;-88.124;2023-03-23T00:54:20;98535.14;;;7.38;100.00
46642;BME280;32370;41.864;-88.124;2023-03-23T00:56:49;98533.70;;;7.75;100.00
46642;BME280;32370;41.864;-88.124;2023-03-23T00:59:17;98533.41;;;7.96;100.00
46642;BME280;32370;41.864;-88.124;2023-03-23T01:01:45;98538.91;;;7.44;100.00
46642;BME280;32370;41.864;-88.124;2023-03-23T01:04:14;98542.02;;;7.90;100.00
46642;BME280;32370;41.864;-88.124;2023-03-23T01:06:44;98539.02;;;7.50;100.00
46642;BME280;32370;41.864;-88.124;2023-03-23T01:09:14;98538.21;;;7.53;100.00
46642;BME280;32370;41.864;-88.124;2023-03-23T01:11:43;98544.29;;;7.80;100.00
46642;BME280;32370;41.864;-88.124;2023-03-23T01:14:12;98549.41;;;7.71;100.00
46642;BME280;32370;41.864;-88.124;2023-03-23T01:16:40;98549.79;;;7.94;100.00
46642;BME280;32370;41.864;-88.124;2023-03-23T01:19:11;98556.15;;;7.71;100.00
46642;BME280;32370;41.864;-88.124;2023-03-23T01:21:39;98552.73;;;8.16;100.00
46642;BME280;32370;41.864;-88.124;2023-03-23T01:24:07;98555.08;;;8.22;100.00
46642;BME280;32370;41.864;-88.124;2023-03-23T01:26:35;98553.94;;;8.02;100.00
46642;BME280;32370;41.864;-88.124;2023-03-23T01:29:03;98542.14;;;8.54;100.00
46642;BME280;32370;41.864;-88.124;2023-03-23T01:31:31;98542.63;;;8.79;100.00
46642;BME280;32370;41.864;-88.124;2023-03-23T01:33:59;98540.94;;;8.46;100.00
46642;BME280;32370;41.864;-88.124;2023-03-23T01:36:29;98537.57;;;7.91;100.00
46642;BME280;32370;41.864;-88.124;2023-03-23T01:38:57;98546.95;;;7.98;100.00
46642;BME280;32370;41.864;-88.124;2023-03-23T01:41:25;98554.36;;;7.77;100.00
46642;BME280;32370;41.864;-88.124;2023-03-23T01:43:57;98560.11;;;7.18;100.00
46642;BME280;32370;41.864;-88.124;2023-03-23T01:46:27;98559.00;;;6.68;100.00
46642;BME280;32370;41.864;-88.124;2023-03-23T01:48:58;98565.89;;;6.58;100.00
46642;BME280;32370;41.864;-88.124;2023-03-23T01:51:28;98569.94;;;6.34;100.00
46642;BME280;32370;41.864;-88.124;2023-03-23T01:53:58;98559.79;;;7.01;100.00
46642;BME280;32370;41.864;-88.124;2023-03-23T01:56:31;98561.36;;;7.83;100.00
46642;BME280;32370;41.864;-88.124;2023-03-23T01:59:00;98573.07;;;7.50;100.00
46642;BME280;32370;41.864;-88.124;2023-03-23T02:01:28;98571.84;;;6.53;100.00
46642;BME280;32370;41.864;-88.124;2023-03-23T02:03:58;98569.61;;;7.15;100.00
46642;BME280;32370;41.864;-88.124;2023-03-23T02:06:25;98583.55;;;6.94;100.00
46642;BME280;32370;41.864;-88.124;2023-03-23T02:08:55;98580.93;;;6.77;100.00
46642;BME280;32370;41.864;-88.124;2023-03-23T02:11:23;98585.57;;;6.96;100.00
46642;BME280;32370;41.864;-88.124;2023-03-23T02:13:52;98579.18;;;7.32;100.00
46642;BME280;32370;41.864;-88.124;2023-03-23T02:16:27;98574.51;;;7.60;100.00
46642;BME280;32370;41.864;-88.124;2023-03-23T02:19:44;98579.12;;;7.38;100.00
46642;BME280;32370;41.864;-88.124;2023-03-23T02:22:31;98574.79;;;7.21;100.00
46642;BME280;32370;41.864;-88.124;2023-03-23T02:25:18;98569.49;;;7.29;100.00
46642;BME280;32370;41.864;-88.124;2023-03-23T02:28:15;98569.00;;;7.81;100.00
46642;BME280;32370;41.864;-88.124;2023-03-23T02:31:01;98560.34;;;7.55;100.00
46642;BME280;32370;41.864;-88.124;2023-03-23T02:33:38;98564.05;;;7.23;100.00
46642;BME280;32370;41.864;-88.124;2023-03-23T02:36:16;98563.57;;;7.42;100.00
46642;BME280;32370;41.864;-88.124;2023-03-23T02:38:55;98566.98;;;7.04;100.00
46642;BME280;32370;41.864;-88.124;2023-03-23T02:41:28;98568.78;;;6.47;100.00
46642;BME280;32370;41.864;-88.124;2023-03-23T02:43:59;98575.44;;;6.97;100.00
46642;BME280;32370;41.864;-88.124;2023-03-23T02:46:29;98579.05;;;7.20;100.00
46642;BME280;32370;41.864;-88.124;2023-03-23T02:48:59;98548.23;;;8.11;100.00
46642;BME280;32370;41.864;-88.124;2023-03-23T02:51:29;98548.65;;;7.92;100.00
46642;BME280;32370;41.864;-88.124;2023-03-23T02:53:59;98566.38;;;7.36;100.00
46642;BME280;32370;41.864;-88.124;2023-03-23T02:56:29;98553.11;;;7.64;100.00
46642;BME280;32370;41.864;-88.124;2023-03-23T02:58:58;98547.23;;;8.30;100.00
46642;BME280;32370;41.864;-88.124;2023-03-23T03:02:04;98561.98;;;7.63;100.00
46642;BME280;32370;41.864;-88.124;2023-03-23T03:04:35;98569.52;;;7.24;100.00
46642;BME280;32370;41.864;-88.124;2023-03-23T03:07:18;98576.13;;;6.53;100.00
46642;BME280;32370;41.864;-88.124;2023-03-23T03:09:53;98574.32;;;6.90;100.00
46642;BME280;32370;41.864;-88.124;2023-03-23T03:12:30;98563.53;;;7.47;100.00
46642;BME280;32370;41.864;-88.124;2023-03-23T03:15:10;98554.90;;;7.46;100.00
46642;BME280;32370;41.864;-88.124;2023-03-23T03:17:44;98557.16;;;7.71;100.00
46642;BME280;32370;41.864;-88.124;2023-03-23T03:20:15;98561.97;;;7.64;100.00
46642;BME280;32370;41.864;-88.124;2023-03-23T03:22:45;98572.29;;;7.08;100.00
46642;BME280;32370;41.864;-88.124;2023-03-23T03:25:15;98571.99;;;6.97;100.00
46642;BME280;32370;41.864;-88.124;2023-03-23T03:27:46;98577.14;;;7.39;100.00
46642;BME280;32370;41.864;-88.124;2023-03-23T03:30:17;98560.86;;;7.72;100.00
46642;BME280;32370;41.864;-88.124;2023-03-23T03:32:49;98548.37;;;7.83;100.00
46642;BME280;32370;41.864;-88.124;2023-03-23T03:35:19;98536.06;;;7.75;100.00
46642;BME280;32370;41.864;-88.124;2023-03-23T03:37:47;98532.67;;;8.21;100.00
46642;BME280;32370;41.864;-88.124;2023-03-23T03:40:19;98525.83;;;7.84;100.00
46642;BME280;32370;41.864;-88.124;2023-03-23T03:42:47;98524.19;;;7.36;100.00
46642;BME280;32370;41.864;-88.124;2023-03-23T03:45:18;98523.13;;;7.52;100.00
46642;BME280;32370;41.864;-88.124;2023-03-23T03:47:46;98517.38;;;8.00;100.00
46642;BME280;32370;41.864;-88.124;2023-03-23T03:50:14;98514.23;;;8.25;100.00
46642;BME280;32370;41.864;-88.124;2023-03-23T03:52:42;98517.46;;;7.76;100.00
46642;BME280;32370;41.864;-88.124;2023-03-23T03:55:11;98500.19;;;8.22;100.00
46642;BME280;32370;41.864;-88.124;2023-03-23T03:57:39;98503.60;;;7.90;100.00
46642;BME280;32370;41.864;-88.124;2023-03-23T04:00:08;98514.21;;;7.67;100.00
46642;BME280;32370;41.864;-88.124;2023-03-23T04:02:37;98521.77;;;7.46;100.00
46642;BME280;32370;41.864;-88.124;2023-03-23T04:05:05;98526.96;;;7.32;100.00
46642;BME280;32370;41.864;-88.124;2023-03-23T04:07:33;98529.89;;;7.30;100.00
46642;BME280;32370;41.864;-88.124;2023-03-23T04:10:03;98547.64;;;7.68;100.00
46642;BME280;32370;41.864;-88.124;2023-03-23T04:12:31;98546.35;;;7.96;100.00
46642;BME280;32370;41.864;-88.124;2023-03-23T04:14:58;98540.16;;;7.21;100.00
46642;BME280;32370;41.864;-88.124;2023-03-23T04:17:26;98531.06;;;6.54;100.00
46642;BME280;32370;41.864;-88.124;2023-03-23T04:19:54;98522.14;;;7.06;100.00
46642;BME280;32370;41.864;-88.124;2023-03-23T04:22:23;98521.17;;;6.96;100.00
46642;BME280;32370;41.864;-88.124;2023-03-23T04:24:51;98517.11;;;7.43;100.00
46642;BME280;32370;41.864;-88.124;2023-03-23T04:27:19;98504.42;;;7.09;100.00
46642;BME280;32370;41.864;-88.124;2023-03-23T04:29:46;98515.82;;;7.08;100.00
46642;BME280;32370;41.864;-88.124;2023-03-23T04:32:14;98521.78;;;6.93;100.00
46642;BME280;32370;41.864;-88.124;2023-03-23T04:34:42;98503.77;;;7.25;100.00
46642;BME280;32370;41.864;-88.124;2023-03-23T04:37:10;98510.50;;;7.51;100.00
46642;BME280;32370;41.864;-88.124;2023-03-23T04:39:38;98510.65;;;7.32;100.00
46642;BME280;32370;41.864;-88.124;2023-03-23T04:42:06;98509.58;;;7.86;100.00
46642;BME280;32370;41.864;-88.124;2023-03-23T04:44:34;98500.98;;;7.86;100.00
46642;BME280;32370;41.864;-88.124;2023-03-23T04:47:02;98490.75;;;7.50;100.00
46642;BME280;32370;41.864;-88.124;2023-03-23T04:49:30;98488.94;;;7.51;100.00
46642;BME280;32370;41.864;-88.124;2023-03-23T04:51:58;98470.90;;;7.70;100.00
46642;BME280;32370;41.864;-88.124;2023-03-23T04:54:25;98457.93;;;7.31;100.00
46642;BME280;32370;41.864;-88.124;2023-03-23T04:56:53;98446.97;;;7.55;100.00
46642;BME280;32370;41.864;-88.124;2023-03-23T04:59:21;98437.44;;;7.78;100.00
46642;BME280;32370;41.864;-88.124;2023-03-23T05:01:49;98422.29;;;7.82;100.00
46642;BME280;32370;41.864;-88.124;2023-03-23T05:04:17;98411.83;;;7.91;100.00
46642;BME280;32370;41.864;-88.124;2023-03-23T05:06:45;98417.79;;;8.14;100.00
46642;BME280;32370;41.864;-88.124;2023-03-23T05:09:12;98436.37;;;7.21;100.00
46642;BME280;32370;41.864;-88.124;2023-03-23T05:11:41;98445.85;;;6.55;100.00
46642;BME280;32370;41.864;-88.124;2023-03-23T05:14:09;98460.69;;;7.10;100.00
46642;BME280;32370;41.864;-88.124;2023-03-23T05:16:37;98473.62;;;7.29;100.00
46642;BME280;32370;41.864;-88.124;2023-03-23T05:19:05;98489.09;;;6.97;100.00
46642;BME280;32370;41.864;-88.124;2023-03-23T05:21:32;98491.89;;;7.36;100.00
46642;BME280;32370;41.864;-88.124;2023-03-23T05:24:00;98489.89;;;7.07;100.00
46642;BME280;32370;41.864;-88.124;2023-03-23T05:26:28;98491.75;;;7.16;100.00
46642;BME280;32370;41.864;-88.124;2023-03-23T05:28:56;98497.10;;;7.24;100.00
46642;BME280;32370;41.864;-88.124;2023-03-23T05:31:24;98490.12;;;7.28;100.00
46642;BME280;32370;41.864;-88.124;2023-03-23T05:33:52;98496.57;;;7.32;100.00
46642;BME280;32370;41.864;-88.124;2023-03-23T05:36:19;98504.13;;;7.35;100.00
46642;BME280;32370;41.864;-88.124;2023-03-23T05:38:47;98506.49;;;7.56;100.00
46642;BME280;32370;41.864;-88.124;2023-03-23T05:41:15;98518.24;;;7.23;100.00
46642;BME280;32370;41.864;-88.124;2023-03-23T05:43:43;98509.46;;;7.22;100.00
46642;BME280;32370;41.864;-88.124;2023-03-23T05:46:11;98501.50;;;7.48;100.00
46642;BME280;32370;41.864;-88.124;2023-03-23T05:48:39;98488.62;;;7.28;100.00
46642;BME280;32370;41.864;-88.124;2023-03-23T05:51:06;98479.49;;;7.31;100.00
46642;BME280;32370;41.864;-88.124;2023-03-23T05:53:34;98484.42;;;7.74;100.00
46642;BME280;32370;41.864;-88.124;2023-03-23T05:56:03;98480.62;;;6.58;100.00
46642;BME280;32370;41.864;-88.124;2023-03-23T05:58:31;98473.49;;;6.53;100.00
46642;BME280;32370;41.864;-88.124;2023-03-23T06:00:59;98485.48;;;6.32;100.00
46642;BME280;32370;41.864;-88.124;2023-03-23T06:03:27;98474.02;;;6.46;100.00
46642;BME280;32370;41.864;-88.124;2023-03-23T06:05:55;98438.15;;;7.18;100.00
46642;BME280;32370;41.864;-88.124;2023-03-23T06:08:23;98419.20;;;7.74;100.00
46642;BME280;32370;41.864;-88.124;2023-03-23T06:10:51;98412.76;;;7.49;100.00
46642;BME280;32370;41.864;-88.124;2023-03-23T06:13:20;98401.59;;;7.15;100.00
46642;BME280;32370;41.864;-88.124;2023-03-23T06:15:48;98388.95;;;7.22;100.00
46642;BME280;32370;41.864;-88.124;2023-03-23T06:18:17;98374.38;;;7.54;100.00
46642;BME280;32370;41.864;-88.124;2023-03-23T06:20:45;98374.05;;;7.14;100.00
46642;BME280;32370;41.864;-88.124;2023-03-23T06:23:13;98377.50;;;6.97;100.00
46642;BME280;32370;41.864;-88.124;2023-03-23T06:25:41;98372.56;;;6.97;100.00
46642;BME280;32370;41.864;-88.124;2023-03-23T06:28:09;98352.89;;;6.77;100.00
46642;BME280;32370;41.864;-88.124;2023-03-23T06:30:37;98336.51;;;7.25;100.00
46642;BME280;32370;41.864;-88.124;2023-03-23T06:33:05;98329.49;;;7.05;100.00
46642;BME280;32370;41.864;-88.124;2023-03-23T06:35:33;98332.35;;;7.35;100.00
46642;BME280;32370;41.864;-88.124;2023-03-23T06:38:01;98329.26;;;7.66;100.00
46642;BME280;32370;41.864;-88.124;2023-03-23T06:40:29;98332.87;;;7.42;100.00
46642;BME280;32370;41.864;-88.124;2023-03-23T06:42:58;98338.86;;;7.07;100.00
46642;BME280;32370;41.864;-88.124;2023-03-23T06:45:26;98342.07;;;6.52;100.00
46642;BME280;32370;41.864;-88.124;2023-03-23T06:47:55;98351.20;;;7.23;100.00
46642;BME280;32370;41.864;-88.124;2023-03-23T06:50:23;98349.81;;;7.48;100.00
46642;BME280;32370;41.864;-88.124;2023-03-23T06:52:51;98350.27;;;6.96;100.00
46642;BME280;32370;41.864;-88.124;2023-03-23T06:55:19;98342.25;;;7.73;100.00
46642;BME280;32370;41.864;-88.124;2023-03-23T06:57:48;98354.66;;;7.83;100.00
46642;BME280;32370;41.864;-88.124;2023-03-23T07:00:16;98366.57;;;7.79;100.00
46642;BME280;32370;41.864;-88.124;2023-03-23T07:02:44;98370.00;;;7.59;100.00
46642;BME280;32370;41.864;-88.124;2023-03-23T07:05:12;98369.88;;;7.26;100.00
46642;BME280;32370;41.864;-88.124;2023-03-23T07:07:40;98349.59;;;7.57;100.00
46642;BME280;32370;41.864;-88.124;2023-03-23T07:10:09;98348.35;;;7.45;100.00
46642;BME280;32370;41.864;-88.124;2023-03-23T07:12:38;98354.78;;;7.04;100.00
46642;BME280;32370;41.864;-88.124;2023-03-23T07:15:07;98346.47;;;7.38;100.00
46642;BME280;32370;41.864;-88.124;2023-03-23T07:17:36;98351.33;;;7.03;100.00
46642;BME280;32370;41.864;-88.124;2023-03-23T07:20:05;98353.04;;;7.77;100.00
46642;BME280;32370;41.864;-88.124;2023-03-23T07:22:34;98353.85;;;7.62;100.00
46642;BME280;32370;41.864;-88.124;2023-03-23T07:25:02;98380.28;;;7.55;100.00
46642;BME280;32370;41.864;-88.124;2023-03-23T07:27:30;98386.37;;;7.42;100.00
46642;BME280;32370;41.864;-88.124;2023-03-23T07:29:57;98392.07;;;6.81;100.00
46642;BME280;32370;41.864;-88.124;2023-03-23T07:32:26;98392.43;;;7.01;100.00
46642;BME280;32370;41.864;-88.124;2023-03-23T07:34:53;98399.92;;;6.93;100.00
46642;BME280;32370;41.864;-88.124;2023-03-23T07:37:21;98384.24;;;6.91;100.00
46642;BME280;32370;41.864;-88.124;2023-03-23T07:39:49;98377.76;;;6.56;100.00
46642;BME280;32370;41.864;-88.124;2023-03-23T07:42:17;98379.76;;;7.11;100.00
46642;BME280;32370;41.864;-88.124;2023-03-23T07:44:45;98374.34;;;6.77;100.00
46642;BME280;32370;41.864;-88.124;2023-03-23T07:47:13;98353.53;;;7.25;100.00
46642;BME280;32370;41.864;-88.124;2023-03-23T07:49:41;98351.34;;;7.29;100.00
46642;BME280;32370;41.864;-88.124;2023-03-23T07:52:09;98340.13;;;7.44;100.00
46642;BME280;32370;41.864;-88.124;2023-03-23T07:54:37;98337.17;;;6.93;100.00
46642;BME280;32370;41.864;-88.124;2023-03-23T07:57:05;98332.33;;;7.18;100.00
46642;BME280;32370;41.864;-88.124;2023-03-23T07:59:32;98338.87;;;6.66;100.00
46642;BME280;32370;41.864;-88.124;2023-03-23T08:02:00;98345.14;;;6.94;100.00
46642;BME280;32370;41.864;-88.124;2023-03-23T08:04:28;98339.57;;;6.77;100.00
46642;BME280;32370;41.864;-88.124;2023-03-23T08:06:56;98327.38;;;7.13;100.00
46642;BME280;32370;41.864;-88.124;2023-03-23T08:09:24;98309.39;;;7.29;100.00
46642;BME280;32370;41.864;-88.124;2023-03-23T08:11:52;98317.45;;;7.26;100.00
46642;BME280;32370;41.864;-88.124;2023-03-23T08:14:19;98328.82;;;6.15;100.00
46642;BME280;32370;41.864;-88.124;2023-03-23T08:16:48;98340.97;;;5.71;100.00
46642;BME280;32370;41.864;-88.124;2023-03-23T08:19:16;98346.94;;;5.77;100.00
46642;BME280;32370;41.864;-88.124;2023-03-23T08:21:44;98351.25;;;5.55;100.00
46642;BME280;32370;41.864;-88.124;2023-03-23T08:24:12;98339.33;;;5.99;100.00
46642;BME280;32370;41.864;-88.124;2023-03-23T08:26:40;98303.56;;;6.58;100.00
46642;BME280;32370;41.864;-88.124;2023-03-23T08:29:08;98285.35;;;6.93;100.00
46642;BME280;32370;41.864;-88.124;2023-03-23T08:31:37;98274.79;;;7.04;100.00
46642;BME280;32370;41.864;-88.124;2023-03-23T08:34:05;98295.13;;;6.22;100.00
46642;BME280;32370;41.864;-88.124;2023-03-23T08:36:34;98301.72;;;6.24;100.00
46642;BME280;32370;41.864;-88.124;2023-03-23T08:39:02;98306.46;;;6.07;100.00
46642;BME280;32370;41.864;-88.124;2023-03-23T08:41:30;98318.04;;;6.60;100.00
46642;BME280;32370;41.864;-88.124;2023-03-23T08:43:58;98333.04;;;6.18;100.00
46642;BME280;32370;41.864;-88.124;2023-03-23T08:46:26;98340.38;;;6.20;100.00
46642;BME280;32370;41.864;-88.124;2023-03-23T08:48:54;98338.42;;;6.60;100.00
46642;BME280;32370;41.864;-88.124;2023-03-23T08:51:21;98341.38;;;6.51;100.00
46642;BME280;32370;41.864;-88.124;2023-03-23T08:53:49;98347.72;;;6.35;100.00
46642;BME280;32370;41.864;-88.124;2023-03-23T08:56:17;98345.67;;;6.54;100.00
46642;BME280;32370;41.864;-88.124;2023-03-23T08:58:46;98342.85;;;6.54;100.00
46642;BME280;32370;41.864;-88.124;2023-03-23T09:01:14;98350.03;;;6.57;100.00
46642;BME280;32370;41.864;-88.124;2023-03-23T09:03:46;98364.71;;;6.52;100.00
46642;BME280;32370;41.864;-88.124;2023-03-23T09:06:14;98360.96;;;6.25;100.00
46642;BME280;32370;41.864;-88.124;2023-03-23T09:08:42;98338.63;;;6.53;100.00
46642;BME280;32370;41.864;-88.124;2023-03-23T09:11:10;98319.44;;;7.27;100.00
46642;BME280;32370;41.864;-88.124;2023-03-23T09:13:41;98300.39;;;7.47;100.00
46642;BME280;32370;41.864;-88.124;2023-03-23T09:16:09;98249.23;;;7.17;100.00
46642;BME280;32370;41.864;-88.124;2023-03-23T09:18:38;98251.50;;;6.90;100.00
46642;BME280;32370;41.864;-88.124;2023-03-23T09:21:06;98304.08;;;6.84;100.00
46642;BME280;32370;41.864;-88.124;2023-03-23T09:23:35;98531.32;;;5.95;100.00
46642;BME280;32370;41.864;-88.124;2023-03-23T09:26:03;98615.71;;;6.27;100.00
46642;BME280;32370;41.864;-88.124;2023-03-23T09:28:31;98440.37;;;6.43;100.00
46642;BME280;32370;41.864;-88.124;2023-03-23T09:30:59;98481.62;;;6.60;100.00
46642;BME280;32370;41.864;-88.124;2023-03-23T09:33:27;98465.59;;;6.58;100.00
46642;BME280;32370;41.864;-88.124;2023-03-23T09:35:55;98454.44;;;6.36;100.00
46642;BME280;32370;41.864;-88.124;2023-03-23T09:38:23;98461.37;;;6.12;100.00
46642;BME280;32370;41.864;-88.124;2023-03-23T09:40:56;98457.77;;;6.65;100.00
46642;BME280;32370;41.864;-88.124;2023-03-23T09:43:42;98459.77;;;6.80;100.00
46642;BME280;32370;41.864;-88.124;2023-03-23T09:46:22;98440.66;;;6.15;100.00
46642;BME280;32370;41.864;-88.124;2023-03-23T09:48:54;98417.53;;;6.45;100.00
46642;BME280;32370;41.864;-88.124;2023-03-23T09:51:35;98368.36;;;6.58;100.00
46642;BME280;32370;41.864;-88.124;2023-03-23T09:54:12;98332.71;;;6.46;100.00
46642;BME280;32370;41.864;-88.124;2023-03-23T09:56:47;98337.30;;;6.27;100.00
46642;BME280;32370;41.864;-88.124;2023-03-23T09:59:20;98380.15;;;6.26;100.00
46642;BME280;32370;41.864;-88.124;2023-03-23T10:01:52;98446.40;;;5.91;100.00
46642;BME280;32370;41.864;-88.124;2023-03-23T10:04:28;98480.38;;;6.32;100.00
46642;BME280;32370;41.864;-88.124;2023-03-23T10:07:05;98423.95;;;6.66;100.00
46642;BME280;32370;41.864;-88.124;2023-03-23T10:09:34;98429.55;;;6.87;100.00
46642;BME280;32370;41.864;-88.124;2023-03-23T10:12:12;98423.34;;;6.10;100.00
46642;BME280;32370;41.864;-88.124;2023-03-23T10:14:55;98385.72;;;6.85;100.00
46642;BME280;32370;41.864;-88.124;2023-03-23T10:17:29;98426.92;;;6.56;100.00
46642;BME280;32370;41.864;-88.124;2023-03-23T10:20:15;98419.23;;;6.24;100.00
46642;BME280;32370;41.864;-88.124;2023-03-23T10:22:50;98445.63;;;6.03;100.00
46642;BME280;32370;41.864;-88.124;2023-03-23T10:25:23;98440.72;;;5.81;100.00
46642;BME280;32370;41.864;-88.124;2023-03-23T10:27:57;98446.91;;;5.89;100.00
46642;BME280;32370;41.864;-88.124;2023-03-23T10:30:29;98452.21;;;5.83;100.00
46642;BME280;32370;41.864;-88.124;2023-03-23T10:33:01;98457.63;;;5.63;100.00
46642;BME280;32370;41.864;-88.124;2023-03-23T10:35:33;98460.52;;;5.70;100.00
46642;BME280;32370;41.864;-88.124;2023-03-23T10:38:05;98482.18;;;5.32;100.00
46642;BME280;32370;41.864;-88.124;2023-03-23T10:40:35;98514.94;;;4.76;100.00
46642;BME280;32370;41.864;-88.124;2023-03-23T10:43:07;98531.91;;;4.64;100.00
46642;BME280;32370;41.864;-88.124;2023-03-23T10:45:35;98522.48;;;4.39;100.00
46642;BME280;32370;41.864;-88.124;2023-03-23T10:48:09;98507.51;;;5.20;100.00
46642;BME280;32370;41.864;-88.124;2023-03-23T10:50:39;98525.34;;;4.25;100.00
46642;BME280;32370;41.864;-88.124;2023-03-23T10:53:15;98518.17;;;4.51;100.00
46642;BME280;32370;41.864;-88.124;2023-03-23T10:55:44;98549.09;;;4.73;100.00
46642;BME280;32370;41.864;-88.124;2023-03-23T10:58:22;98580.26;;;4.63;100.00
46642;BME280;32370;41.864;-88.124;2023-03-23T11:00:50;98636.63;;;4.08;100.00
46642;BME280;32370;41.864;-88.124;2023-03-23T11:03:27;98636.49;;;4.41;100.00
46642;BME280;32370;41.864;-88.124;2023-03-23T11:05:58;98651.22;;;4.10;100.00
46642;BME280;32370;41.864;-88.124;2023-03-23T11:08:28;98690.89;;;4.56;100.00
46642;BME280;32370;41.864;-88.124;2023-03-23T11:11:08;98644.42;;;3.91;100.00
46642;BME280;32370;41.864;-88.124;2023-03-23T11:13:41;98633.00;;;3.84;100.00
46642;BME280;32370;41.864;-88.124;2023-03-23T11:16:10;98608.58;;;3.87;100.00
46642;BME280;32370;41.864;-88.124;2023-03-23T11:18:41;98616.84;;;3.98;100.00
46642;BME280;32370;41.864;-88.124;2023-03-23T11:21:12;98560.58;;;4.16;100.00
46642;BME280;32370;41.864;-88.124;2023-03-23T11:23:46;98562.52;;;4.25;100.00
46642;BME280;32370;41.864;-88.124;2023-03-23T11:26:19;98577.56;;;4.22;100.00
46642;BME280;32370;41.864;-88.124;2023-03-23T11:28:52;98581.39;;;3.93;100.00
46642;BME280;32370;41.864;-88.124;2023-03-23T11:31:23;98577.84;;;3.90;100.00
46642;BME280;32370;41.864;-88.124;2023-03-23T11:33:55;98583.28;;;3.81;100.00
46642;BME280;32370;41.864;-88.124;2023-03-23T11:36:31;98575.59;;;3.65;100.00
46642;BME280;32370;41.864;-88.124;2023-03-23T11:39:00;98573.42;;;3.67;100.00
46642;BME280;32370;41.864;-88.124;2023-03-23T11:41:33;98547.69;;;3.61;99.58
46642;BME280;32370;41.864;-88.124;2023-03-23T11:44:09;98548.95;;;3.36;99.57
46642;BME280;32370;41.864;-88.124;2023-03-23T11:46:46;98549.53;;;3.26;99.51
46642;BME280;32370;41.864;-88.124;2023-03-23T11:49:26;98558.48;;;3.14;100.00
46642;BME280;32370;41.864;-88.124;2023-03-23T11:52:02;98566.16;;;2.84;100.00
46642;BME280;32370;41.864;-88.124;2023-03-23T11:54:36;98574.21;;;3.20;100.00
46642;BME280;32370;41.864;-88.124;2023-03-23T11:57:07;98576.44;;;3.30;100.00
46642;BME280;32370;41.864;-88.124;2023-03-23T11:59:36;98569.82;;;3.25;100.00
46642;BME280;32370;41.864;-88.124;2023-03-23T12:02:20;98581.03;;;3.24;100.00
46642;BME280;32370;41.864;-88.124;2023-03-23T12:05:00;98587.83;;;3.00;100.00
46642;BME280;32370;41.864;-88.124;2023-03-23T12:07:43;98589.11;;;2.37;100.00
46642;BME280;32370;41.864;-88.124;2023-03-23T12:10:24;98592.20;;;2.80;100.00
46642;BME280;32370;41.864;-88.124;2023-03-23T12:13:02;98600.18;;;3.18;100.00
46642;BME280;32370;41.864;-88.124;2023-03-23T12:15:38;98586.34;;;2.96;100.00
46642;BME280;32370;41.864;-88.124;2023-03-23T12:18:22;98574.21;;;3.20;100.00
46642;BME280;32370;41.864;-88.124;2023-03-23T12:21:00;98588.19;;;3.04;100.00
46642;BME280;32370;41.864;-88.124;2023-03-23T12:23:36;98597.89;;;2.97;100.00
46642;BME280;32370;41.864;-88.124;2023-03-23T12:26:14;98592.35;;;2.84;100.00
46642;BME280;32370;41.864;-88.124;2023-03-23T12:28:57;98594.16;;;2.76;100.00
46642;BME280;32370;41.864;-88.124;2023-03-23T12:31:33;98606.56;;;3.16;100.00
46642;BME280;32370;41.864;-88.124;2023-03-23T12:34:10;98613.47;;;3.08;100.00
46642;BME280;32370;41.864;-88.124;2023-03-23T12:36:57;98602.26;;;3.87;100.00
46642;BME280;32370;41.864;-88.124;2023-03-23T12:39:48;98574.44;;;3.69;100.00
46642;BME280;32370;41.864;-88.124;2023-03-23T12:42:26;98573.75;;;3.15;100.00
46642;BME280;32370;41.864;-88.124;2023-03-23T12:45:04;98588.90;;;3.31;100.00
46642;BME280;32370;41.864;-88.124;2023-03-23T12:47:39;98607.25;;;3.39;100.00
46642;BME280;32370;41.864;-88.124;2023-03-23T12:50:14;98608.98;;;2.99;100.00
46642;BME280;32370;41.864;-88.124;2023-03-23T12:52:48;98598.59;;;2.93;100.00
46642;BME280;32370;41.864;-88.124;2023-03-23T12:55:23;98607.87;;;2.65;100.00
46642;BME280;32370;41.864;-88.124;2023-03-23T12:57:57;98631.79;;;2.83;100.00
46642;BME280;32370;41.864;-88.124;2023-03-23T13:00:30;98639.73;;;2.78;100.00